Time;durP1;ratioP1;P1;durP2;ratioP2;P2;SDS_P1;SDS_P2;PMS_P1;PMS_P2;Temp;Humidity;BMP_temperature;BMP_pressure;BME280_temperature;BME280_humidity;BME280_pressure;Samples;Min_cycle;Max_cycle;Signal;HPM_P1;HPM_P2
2021/03/12 21:02:16;;;;;;;13.00;2.42;;;;;;;7.19;85.94;98179.09;4227055;33;20444;-72
2021/03/12 21:04:42;;;;;;;15.13;2.33;;;;;;;7.07;86.19;98178.09;4236136;33;20102;-75
2021/03/12 21:07:07;;;;;;;19.85;3.78;;;;;;;7.09;85.88;98169.25;4236526;33;20474;-74
2021/03/12 21:09:33;;;;;;;13.05;2.05;;;;;;;7.09;85.63;98153.22;4241578;33;20739;-74
2021/03/12 21:14:30;;;;;;;18.12;2.58;;;;;;;7.26;84.60;98145.16;4236493;33;20477;-74
2021/03/12 21:16:56;;;;;;;16.42;2.97;;;;;;;7.35;84.51;98131.09;4235725;33;20448;-73
2021/03/12 21:19:21;;;;;;;14.55;2.62;;;;;;;7.35;83.98;98123.50;4238788;33;20576;-77
2021/03/12 21:21:47;;;;;;;24.00;3.60;;;;;;;7.36;83.76;98113.06;4243284;33;20094;-74
2021/03/12 21:24:12;;;;;;;23.70;3.55;;;;;;;7.42;84.40;98099.94;4240577;33;20107;-75
2021/03/12 21:26:38;;;;;;;18.62;2.97;;;;;;;7.42;83.82;98094.34;4241157;33;20462;-73
2021/03/12 21:29:05;;;;;;;16.42;3.30;;;;;;;7.46;83.71;98083.75;4241003;33;20084;-72
2021/03/12 21:31:30;;;;;;;16.87;2.80;;;;;;;7.48;83.26;98078.44;4242856;33;20089;-74
2021/03/12 21:33:56;;;;;;;16.10;3.15;;;;;;;7.46;83.18;98058.59;4243182;33;20073;-70
2021/03/12 21:36:23;;;;;;;15.80;2.20;;;;;;;7.38;83.41;98058.19;4243553;33;20110;-71
2021/03/12 21:38:50;;;;;;;18.90;2.65;;;;;;;7.41;83.09;98056.44;4241341;33;20167;-74
2021/03/12 21:41:17;;;;;;;15.35;3.10;;;;;;;7.44;83.55;98044.31;4246956;33;20080;-74
2021/03/12 21:43:43;;;;;;;20.20;3.25;;;;;;;7.28;83.87;98030.78;4242608;33;20099;-76
2021/03/12 21:46:08;;;;;;;18.45;2.78;;;;;;;7.34;84.62;98023.28;4237846;33;20086;-74
2021/03/12 21:48:34;;;;;;;11.10;2.62;;;;;;;7.36;84.10;98012.34;4246856;33;20073;-74
2021/03/12 21:51:00;;;;;;;15.15;3.05;;;;;;;7.36;84.21;98013.16;4246187;33;20117;-72
2021/03/12 21:53:27;;;;;;;14.38;3.25;;;;;;;7.41;84.29;97992.88;4247400;33;20488;-75
2021/03/12 21:55:53;;;;;;;38.25;5.10;;;;;;;7.35;84.00;97999.62;4247751;33;20455;-77
2021/03/12 21:58:18;;;;;;;18.35;3.20;;;;;;;7.42;84.61;97976.84;4247802;33;20072;-75
2021/03/12 22:00:44;;;;;;;15.52;3.50;;;;;;;7.38;84.45;97973.50;4247377;33;20080;-75
2021/03/12 22:03:09;;;;;;;20.20;3.10;;;;;;;7.42;84.65;97958.06;4247566;33;20069;-73
2021/03/12 22:05:35;;;;;;;21.73;4.00;;;;;;;7.45;84.28;97945.91;4243060;33;20402;-74
2021/03/12 22:08:07;;;;;;;10.85;2.55;;;;;;;7.50;84.72;97934.03;4246779;33;20026;-76
2021/03/12 22:10:33;;;;;;;9.80;2.40;;;;;;;7.51;84.05;97926.41;4247877;33;20049;-74
2021/03/12 22:13:00;;;;;;;12.95;2.55;;;;;;;7.50;84.90;97925.66;4241427;33;20074;-71
2021/03/12 22:15:26;;;;;;;22.30;2.75;;;;;;;7.39;84.09;97930.28;4249140;33;20072;-72
2021/03/12 22:17:51;;;;;;;8.80;2.10;;;;;;;7.34;84.80;97909.34;4243103;33;20097;-73
2021/03/12 22:20:17;;;;;;;8.13;2.08;;;;;;;7.29;84.51;97909.28;4245943;33;20029;-73
2021/03/12 22:22:43;;;;;;;9.77;1.90;;;;;;;7.27;85.02;97906.22;4247448;33;20073;-75
2021/03/12 22:25:10;;;;;;;8.88;2.05;;;;;;;7.19;84.75;97888.28;4246517;33;20062;-75
2021/03/12 22:27:43;;;;;;;16.92;2.17;;;;;;;7.20;85.00;97889.81;4246679;33;20397;-74
2021/03/12 22:30:10;;;;;;;9.82;2.20;;;;;;;7.15;85.45;97868.88;4246099;33;20104;-74
2021/03/12 22:32:36;;;;;;;7.40;1.77;;;;;;;7.20;85.76;97856.25;4246617;33;20108;-73
2021/03/12 22:35:02;;;;;;;11.70;2.37;;;;;;;7.16;85.71;97852.88;4249846;33;20117;-74
2021/03/12 22:37:28;;;;;;;9.70;2.33;;;;;;;7.18;85.82;97853.19;4249761;33;20072;-74
2021/03/12 22:39:53;;;;;;;11.00;2.20;;;;;;;7.22;86.33;97834.94;4257210;33;20065;-72
2021/03/12 22:42:19;;;;;;;8.52;2.67;;;;;;;7.23;86.48;97825.28;4242215;33;20117;-74
2021/03/12 22:44:45;;;;;;;9.00;2.00;;;;;;;7.20;86.58;97819.88;4245942;33;20086;-73
2021/03/12 22:47:10;;;;;;;8.38;2.20;;;;;;;7.18;86.69;97822.41;4242782;33;20531;-74
2021/03/12 22:49:36;;;;;;;7.68;1.60;;;;;;;7.19;86.68;97799.56;4246613;33;20069;-77
2021/03/12 22:52:02;;;;;;;6.60;1.95;;;;;;;7.13;86.04;97789.53;4241589;33;20025;-71
2021/03/12 22:54:28;;;;;;;7.32;1.70;;;;;;;7.14;86.15;97777.09;4248284;33;20460;-74
2021/03/12 22:56:53;;;;;;;15.68;2.30;;;;;;;7.09;86.63;97761.78;4244112;33;20129;-71
2021/03/12 22:59:19;;;;;;;8.50;2.10;;;;;;;7.08;86.40;97739.91;4244575;33;20153;-73
2021/03/12 23:01:44;;;;;;;8.48;2.40;;;;;;;7.08;86.74;97729.50;4250091;33;20049;-74
2021/03/12 23:04:11;;;;;;;11.00;2.42;;;;;;;7.06;87.25;97731.25;4247188;33;20084;-72
2021/03/12 23:06:36;;;;;;;9.27;2.17;;;;;;;7.07;87.43;97707.63;4246014;33;20054;-74
2021/03/12 23:09:06;;;;;;;8.68;2.47;;;;;;;7.07;87.77;97704.81;4241860;33;20517;-73
2021/03/12 23:11:33;;;;;;;16.73;3.47;;;;;;;7.00;87.83;97700.41;4245256;33;20053;-73
2021/03/12 23:13:58;;;;;;;9.70;2.83;;;;;;;6.93;88.09;97692.44;4247592;33;20058;-72
2021/03/12 23:16:24;;;;;;;9.45;2.87;;;;;;;6.98;88.13;97688.19;4243769;33;20072;-75
2021/03/12 23:18:50;;;;;;;8.80;3.25;;;;;;;7.00;88.33;97666.09;4243851;33;20116;-70
2021/03/12 23:21:17;;;;;;;7.82;2.28;;;;;;;7.09;88.44;97677.16;4244894;33;20086;-72
2021/03/12 23:23:46;;;;;;;14.60;2.75;;;;;;;7.00;88.03;97655.69;4243331;33;20104;-77
2021/03/12 23:26:16;;;;;;;8.00;2.62;;;;;;;7.02;88.13;97630.03;4245311;33;20393;-74
2021/03/12 23:28:45;;;;;;;12.77;2.37;;;;;;;7.02;87.78;97633.59;4237745;33;20077;-75
2021/03/12 23:31:11;;;;;;;12.63;2.03;;;;;;;7.06;87.36;97630.59;4254335;33;20058;-75
2021/03/12 23:33:38;;;;;;;6.07;2.10;;;;;;;7.01;87.20;97618.09;4244291;33;20113;-71
2021/03/12 23:36:07;;;;;;;11.25;2.42;;;;;;;7.02;87.60;97611.25;4245117;33;20030;-73
2021/03/12 23:38:33;;;;;;;6.00;1.65;;;;;;;7.03;87.97;97609.22;4242147;33;20081;-74
2021/03/12 23:40:59;;;;;;;6.65;1.80;;;;;;;7.09;88.05;97593.28;4245605;33;20060;-72
2021/03/12 23:43:36;;;;;;;4.47;1.80;;;;;;;7.08;88.02;97592.50;4245837;33;20356;-72
2021/03/12 23:46:03;;;;;;;6.25;1.90;;;;;;;7.08;87.73;97592.50;4243860;33;20057;-75
2021/03/12 23:48:29;;;;;;;5.22;1.60;;;;;;;7.04;87.95;97585.59;4242824;33;20053;-76
2021/03/12 23:50:59;;;;;;;8.07;1.52;;;;;;;7.06;88.05;97569.84;4238988;33;20400;-73
2021/03/12 23:53:25;;;;;;;9.80;1.70;;;;;;;7.01;87.60;97570.59;4245182;33;20089;-72
2021/03/12 23:55:51;;;;;;;4.05;1.25;;;;;;;6.99;88.65;97572.31;4245211;33;20117;-75
2021/03/12 23:58:16;;;;;;;5.47;1.12;;;;;;;7.05;88.17;97567.56;4240639;33;20073;-72
